IDBO2: Little River, Idabel, OK

                                SHEF ID:       IDBO2     Little River blw Lukfata Creek
STATION TYPE: Stream Gauge
Regulating: Stage = 27.50, Flow = 12738

PRECIP STAGE RIV-FLOW BAT-LOAD
in ft cfs volt
Ccp-Rev Ccp-Rev Ccp-Rev Ccp-Rev
(America/Chicago)
04/27 00:00 0.00 7.98 1007 13.62
04/27 01:00 0.00 7.94 988 13.58
04/27 02:00 0.00 7.90 969 13.55
04/27 03:00 0.00 7.87 955 13.53
04/27 04:00 0.00 7.84 941 13.51
04/27 05:00 0.00 7.79 918 13.49
04/27 06:00 0.00 7.77 908 13.47
04/27 07:00 0.00 7.73 890 13.46
04/27 08:00 0.00 7.70 876 13.43
04/27 09:00 0.00 7.67 862 13.44
04/27 10:00 0.00 7.64 849 13.53
04/27 11:00 0.00 7.61 835 13.80
04/27 12:00 0.00 7.58 822 13.78
04/27 13:00 0.00 7.56 812 13.75
04/27 14:00 0.00 7.54 803 13.73
04/27 15:00 0.00 7.52 794 13.71
04/27 16:00 0.00 7.49 781 13.70
04/27 17:00 0.00 7.47 772 13.68
04/27 18:00 0.00 7.44 759 13.66
04/27 19:00 0.00 7.41 745 13.65
04/27 20:00 0.00 7.38 732 13.64
04/27 21:00 0.00 7.36 723 13.62
04/27 22:00 0.00 7.35 719 13.59
04/27 23:00 0.00 7.35 719 13.57
Data processed at Tue 28Apr2026 04:32 GMT

NOTICE: If you are parsing this page

Please convert to using our Data API. Starting early 2026 we will be migrating to: https://water.usace.army.mil with modern pages rendered in JavaScript. When this migration completes you will no longer be able to scrape this page! CWMSDataAPI (CDA)

Timeseries IDs (TSIDs)

TSIDs used from left to right in the data table
IDAB.Precip-Inc.Total.1Hour.1Hour.Ccp-Rev
IDAB.Stage.Inst.1Hour.0.Ccp-Rev
IDAB.Flow.Inst.1Hour.0.Ccp-Rev
IDAB.Volt-Battery Load.Inst.1Hour.0.Ccp-Rev

                            

All information presented herein is the property of the government of the United States of America and may be revised or deleted at any time without prior notice. Dissemination of this information without the expressed written consent of the Public Affairs Office, Tulsa District U.S. Army Corps of Engineers is strictly prohibited. These data are gathered electronically and, as presented, have NOT undergone any form of quality control. These data are NOT guaranteed to be valid or correct.